createdAt,value
2017-01-02T00:00:34.780Z,0.89
2017-01-02T00:01:49.094Z,0.89
2017-01-02T00:03:03.370Z,0.86
2017-01-02T00:04:17.572Z,0.88
2017-01-02T00:05:31.763Z,0.7
2017-01-02T00:06:46.465Z,0.64
2017-01-02T00:08:00.663Z,0.71
2017-01-02T00:09:14.902Z,0.59
2017-01-02T00:10:29.302Z,0.49
2017-01-02T00:11:43.520Z,0.7
2017-01-02T00:12:58.119Z,0.63
2017-01-02T00:14:12.288Z,0.74
2017-01-02T00:15:26.535Z,0.71
2017-01-02T00:16:42.004Z,0.7
2017-01-02T00:17:56.267Z,0.67
2017-01-02T00:19:10.674Z,0.71
2017-01-02T00:20:24.978Z,0.7
2017-01-02T00:21:41.416Z,0.67
2017-01-02T00:22:55.544Z,0.68
2017-01-02T00:24:09.737Z,0.67
2017-01-02T00:25:25.014Z,0.68
2017-01-02T00:26:39.256Z,0.68
2017-01-02T00:27:53.462Z,0.67
2017-01-02T00:29:08.083Z,0.71
2017-01-02T00:30:22.249Z,0.61
2017-01-02T00:31:38.023Z,0.64
2017-01-02T00:32:52.148Z,0.59
2017-01-02T00:34:06.453Z,0.52
2017-01-02T00:35:20.659Z,0.58
2017-01-02T00:36:34.960Z,0.49
2017-01-02T00:37:49.587Z,0.51
2017-01-02T00:39:03.792Z,0.55
2017-01-02T00:40:18.021Z,0.63
2017-01-02T00:41:32.306Z,0.63
2017-01-02T00:42:46.603Z,0.63
2017-01-02T00:44:01.052Z,0.61
2017-01-02T00:45:15.266Z,0.44
2017-01-02T00:46:29.439Z,0.52
2017-01-02T00:47:43.585Z,0.59
2017-01-02T00:50:33.475Z,0.56
2017-01-02T00:51:47.686Z,0.68
2017-01-02T00:53:03.262Z,0.71
2017-01-02T00:54:17.488Z,0.7
2017-01-02T00:55:31.980Z,0.55
2017-01-02T00:56:46.116Z,0.59
2017-01-02T00:58:00.365Z,0.71
2017-01-02T00:59:14.553Z,0.52
2017-01-02T01:00:28.754Z,0.55
2017-01-02T01:01:43.185Z,0.63
2017-01-02T01:02:57.474Z,0.67
2017-01-02T01:04:11.716Z,0.67
2017-01-02T01:05:25.944Z,0.7
2017-01-02T01:06:40.384Z,0.74
2017-01-02T01:07:54.972Z,0.76
2017-01-02T01:09:09.131Z,0.77
2017-01-02T01:10:23.330Z,0.76
2017-01-02T01:11:37.433Z,0.86
2017-01-02T01:12:51.575Z,0.73
2017-01-02T01:14:06.026Z,0.74
2017-01-02T01:15:20.259Z,0.82
2017-01-02T01:16:34.393Z,0.77
2017-01-02T01:18:07.754Z,0.82
2017-01-02T01:19:23.587Z,0.82
2017-01-02T01:20:37.680Z,0.86
2017-01-02T01:21:51.830Z,0.73
2017-01-02T01:23:06.038Z,0.76
2017-01-02T01:24:20.354Z,0.81
2017-01-02T01:25:34.579Z,0.7
2017-01-02T01:26:49.049Z,0.88
2017-01-02T01:28:03.333Z,0.84
2017-01-02T01:29:17.507Z,0.85
2017-01-02T01:30:31.671Z,0.85
2017-01-02T01:31:45.814Z,0.86
2017-01-02T01:33:00.263Z,0.99
2017-01-02T01:34:14.572Z,0.88
2017-01-02T01:35:28.726Z,0.86
2017-01-02T01:36:42.997Z,0.81
2017-01-02T01:37:57.135Z,0.73
2017-01-02T01:39:11.653Z,0.84
2017-01-02T01:40:28.059Z,0.84
2017-01-02T01:41:42.263Z,0.82
2017-01-02T01:42:56.432Z,0.77
2017-01-02T01:44:25.235Z,0.63
2017-01-02T01:45:39.600Z,0.63
2017-01-02T01:46:53.671Z,0.51
2017-01-02T01:48:07.746Z,0.55
2017-01-02T01:49:22.049Z,0.56
2017-01-02T01:50:36.160Z,0.63
2017-01-02T01:51:50.575Z,0.55
2017-01-02T01:53:04.850Z,0.61
2017-01-02T01:54:20.244Z,0.66
2017-01-02T01:55:34.366Z,0.68
2017-01-02T01:56:48.621Z,0.66
2017-01-02T01:58:03.125Z,0.52
2017-01-02T01:59:18.882Z,0.64
2017-01-02T02:00:33.577Z,0.68
2017-01-02T02:01:50.355Z,0.81
2017-01-02T02:03:05.811Z,0.66
2017-01-02T02:04:24.422Z,0.73
2017-01-02T02:05:40.729Z,0.7
2017-01-02T02:06:59.120Z,0.63
2017-01-02T02:08:21.444Z,0.67
2017-01-02T02:09:40.087Z,0.76
2017-01-02T02:10:58.578Z,0.73
2017-01-02T02:12:16.661Z,0.85
2017-01-02T02:13:34.759Z,0.85
2017-01-02T02:14:51.641Z,0.67
2017-01-02T02:16:08.214Z,0.82
2017-01-02T02:17:26.772Z,0.67
2017-01-02T02:18:44.574Z,0.73
2017-01-02T02:20:03.204Z,0.81
2017-01-02T02:21:18.515Z,0.81
2017-01-02T02:22:32.763Z,0.91
2017-01-02T02:23:46.958Z,0.86
2017-01-02T02:25:02.304Z,0.86
2017-01-02T02:26:16.780Z,0.96
2017-01-02T02:27:31.208Z,0.92
2017-01-02T02:28:45.611Z,0.82
2017-01-02T02:29:59.867Z,0.82
2017-01-02T02:31:14.022Z,0.85
2017-01-02T02:32:28.259Z,0.84
2017-01-02T02:33:42.723Z,0.86
2017-01-02T02:34:57.988Z,0.89
2017-01-02T02:36:12.122Z,0.88
2017-01-02T02:37:27.006Z,0.92
2017-01-02T02:38:41.331Z,1.02
2017-01-02T02:39:55.901Z,0.99
2017-01-02T02:41:10.174Z,0.88
2017-01-02T02:42:24.519Z,1
2017-01-02T02:43:38.752Z,0.95
2017-01-02T02:44:52.947Z,0.92
2017-01-02T02:46:07.563Z,1.02
2017-01-02T02:47:21.703Z,0.96
2017-01-02T02:48:35.987Z,0.99
2017-01-02T02:49:50.229Z,0.95
2017-01-02T02:51:05.842Z,0.96
2017-01-02T02:52:20.350Z,1.02
2017-01-02T02:54:57.590Z,0.94
2017-01-02T02:56:11.837Z,0.92
2017-01-02T02:57:26.499Z,0.95
2017-01-02T02:58:40.723Z,0.92
2017-01-02T02:59:57.233Z,1
2017-01-02T03:01:11.330Z,0.95
2017-01-02T03:02:25.749Z,0.95
2017-01-02T03:03:40.254Z,0.95
2017-01-02T03:04:54.565Z,0.96
2017-01-02T03:06:08.843Z,0.95
2017-01-02T03:07:23.130Z,0.96
2017-01-02T03:08:37.280Z,0.91
2017-01-02T03:09:51.672Z,0.91
2017-01-02T03:11:05.835Z,1.03
2017-01-02T03:12:20.011Z,0.92
2017-01-02T03:14:31.777Z,0.85
2017-01-02T03:15:45.976Z,0.89
2017-01-02T03:17:00.236Z,0.86
2017-01-02T03:18:14.445Z,0.89
2017-01-02T03:19:28.676Z,0.94
2017-01-02T03:20:43.200Z,0.86
2017-01-02T03:21:57.388Z,1
2017-01-02T03:23:11.764Z,0.92
2017-01-02T03:24:25.939Z,0.99
2017-01-02T03:25:40.032Z,0.88
2017-01-02T03:26:54.574Z,0.96
2017-01-02T03:28:08.740Z,0.95
2017-01-02T03:29:23.128Z,1.1
2017-01-02T03:30:37.244Z,1.16
2017-01-02T03:31:51.532Z,1.22
2017-01-02T03:33:07.241Z,1.24
2017-01-02T03:34:21.426Z,1.24
2017-01-02T03:35:35.747Z,1.25
2017-01-02T03:36:50.144Z,1.36
2017-01-02T03:38:04.428Z,1.3
2017-01-02T03:39:18.905Z,1.38
2017-01-02T03:41:04.914Z,1.31
2017-01-02T03:45:06.832Z,1.3
2017-01-02T03:46:20.946Z,1.18
2017-01-02T03:47:35.050Z,1.27
2017-01-02T03:48:49.196Z,1.28
2017-01-02T03:50:03.448Z,1.3
2017-01-02T03:51:17.556Z,1.31
2017-01-02T03:52:31.933Z,1.25
2017-01-02T03:53:46.045Z,1.36
2017-01-02T03:55:00.333Z,1.36
2017-01-02T03:56:14.562Z,1.28
2017-01-02T03:57:28.604Z,1.27
2017-01-02T03:58:43.009Z,1.27
2017-01-02T03:59:58.378Z,1.13
2017-01-02T04:01:12.467Z,1.1
2017-01-02T04:02:26.525Z,1.07
2017-01-02T04:03:40.632Z,1.13
2017-01-02T04:04:55.008Z,1.07
2017-01-02T04:06:09.143Z,1.07
2017-01-02T04:07:23.787Z,1.09
2017-01-02T04:08:38.032Z,1.09
2017-01-02T04:09:49.576Z,1.06
2017-01-02T04:11:02.643Z,1.1
2017-01-02T04:12:14.303Z,1.13
2017-01-02T04:13:30.425Z,1.07
2017-01-02T04:14:44.728Z,1.1
2017-01-02T04:15:56.971Z,1.18
2017-01-02T04:17:08.786Z,1.22
2017-01-02T04:18:20.335Z,1.27
2017-01-02T04:19:34.171Z,1.3
2017-01-02T04:20:45.666Z,1.3
2017-01-02T04:21:57.304Z,1.38
2017-01-02T04:23:09.075Z,1.31
2017-01-02T04:24:20.787Z,1.42
2017-01-02T04:25:32.528Z,1.31
2017-01-02T04:26:44.021Z,1.27
2017-01-02T04:27:55.642Z,1.22
2017-01-02T04:29:07.861Z,1.25
2017-01-02T04:30:19.497Z,1.28
2017-01-02T04:31:30.984Z,1.27
2017-01-02T04:32:42.482Z,1.32
2017-01-02T04:33:54.237Z,1.24
2017-01-02T04:35:06.554Z,1.24
2017-01-02T04:36:18.082Z,1.39
2017-01-02T04:37:29.897Z,1.39
2017-01-02T04:38:41.641Z,1.39
2017-01-02T04:39:53.427Z,1.45
2017-01-02T04:41:05.198Z,1.34
2017-01-02T04:42:16.722Z,1.42
2017-01-02T04:43:28.226Z,1.52
2017-01-02T04:44:39.777Z,1.5
2017-01-02T04:45:51.397Z,1.46
2017-01-02T04:47:03.230Z,1.48
2017-01-02T04:48:14.755Z,1.48
2017-01-02T04:49:26.307Z,1.38
2017-01-02T04:50:37.950Z,1.34
2017-01-02T04:51:49.484Z,1.28
2017-01-02T04:53:01.252Z,1.31
2017-01-02T04:54:12.781Z,1.28
2017-01-02T04:55:24.277Z,1.31
2017-01-02T04:56:35.792Z,1.36
2017-01-02T04:57:47.336Z,1.38
2017-01-02T04:58:59.124Z,1.34
2017-01-02T05:00:10.590Z,1.32
2017-01-02T05:01:22.159Z,1.34
2017-01-02T05:02:33.648Z,1.39
2017-01-02T05:03:45.217Z,1.43
2017-01-02T05:04:57.008Z,1.39
2017-01-02T05:06:08.487Z,1.39
2017-01-02T05:07:20.007Z,1.39
2017-01-02T05:08:31.636Z,1.25
2017-01-02T05:09:44.466Z,1.25
2017-01-02T05:10:56.320Z,1.25
2017-01-02T05:12:07.898Z,1.28
2017-01-02T05:13:19.441Z,1.36
2017-01-02T05:14:30.964Z,1.39
2017-01-02T05:15:42.485Z,1.31
2017-01-02T05:16:54.260Z,1.3
2017-01-02T05:18:05.768Z,1.36
2017-01-02T05:19:17.243Z,1.36
2017-01-02T05:20:31.404Z,1.39
2017-01-02T05:21:45.484Z,1.32
2017-01-02T05:22:59.894Z,1.28
2017-01-02T05:24:14.182Z,1.32
2017-01-02T05:25:28.283Z,1.36
2017-01-02T05:26:42.385Z,1.39
2017-01-02T05:27:53.863Z,1.43
2017-01-02T05:29:05.634Z,1.4
2017-01-02T05:30:17.271Z,1.45
2017-01-02T05:31:28.738Z,1.45
2017-01-02T05:32:40.322Z,1.63
2017-01-02T05:33:54.059Z,1.81
2017-01-02T05:35:05.822Z,1.88
2017-01-02T05:36:17.303Z,1.89
2017-01-02T05:37:29.446Z,2.07
2017-01-02T05:38:41.053Z,2.16
2017-01-02T05:39:52.526Z,2.07
2017-01-02T05:41:04.311Z,1.97
2017-01-02T05:42:15.916Z,1.85
2017-01-02T05:43:27.429Z,1.81
2017-01-02T05:44:38.968Z,1.81
2017-01-02T05:45:50.480Z,1.75
2017-01-02T05:47:02.247Z,1.68
2017-01-02T05:48:13.834Z,1.67
2017-01-02T05:49:25.425Z,1.76
2017-01-02T05:50:37.038Z,1.67
2017-01-02T05:52:33.185Z,1.79
2017-01-02T05:53:44.658Z,1.68
2017-01-02T05:54:56.158Z,1.75
2017-01-02T05:56:08.251Z,1.61
2017-01-02T05:57:19.853Z,1.49
2017-01-02T05:58:31.787Z,1.52
2017-01-02T05:59:43.283Z,1.6
2017-01-02T06:00:54.758Z,1.61
2017-01-02T06:02:06.382Z,1.63
2017-01-02T06:03:17.898Z,1.52
2017-01-02T06:04:29.808Z,1.53
2017-01-02T06:05:41.376Z,1.49
2017-01-02T06:06:52.971Z,1.56
2017-01-02T06:08:04.562Z,1.64
2017-01-02T06:09:16.041Z,1.64
2017-01-02T06:10:27.868Z,1.49
2017-01-02T06:11:39.485Z,1.53
2017-01-02T06:12:50.996Z,1.49
2017-01-02T06:14:02.534Z,1.46
2017-01-02T06:15:14.010Z,1.46
2017-01-02T06:16:25.868Z,1.58
2017-01-02T06:17:37.406Z,1.52
2017-01-02T06:18:49.051Z,1.58
2017-01-02T06:20:00.595Z,1.56
2017-01-02T06:21:12.211Z,1.57
2017-01-02T06:22:23.964Z,1.52
2017-01-02T06:23:35.507Z,1.43
2017-01-02T06:24:46.995Z,1.53
2017-01-02T06:25:58.530Z,1.58
2017-01-02T06:27:10.015Z,1.61
2017-01-02T06:28:21.959Z,1.6
2017-01-02T06:29:33.512Z,1.56
2017-01-02T06:30:45.079Z,1.46
2017-01-02T06:31:56.760Z,1.49
2017-01-02T06:33:08.501Z,1.52
2017-01-02T06:34:20.367Z,1.5
2017-01-02T06:35:32.024Z,1.46
2017-01-02T06:36:44.121Z,1.48
2017-01-02T06:37:55.718Z,1.38
2017-01-02T06:39:07.354Z,1.4
2017-01-02T06:40:19.220Z,1.34
2017-01-02T06:41:30.798Z,1.39
2017-01-02T06:42:42.430Z,1.39
2017-01-02T06:43:53.970Z,1.34
2017-01-02T06:45:05.458Z,1.27
2017-01-02T06:46:17.259Z,1.2
2017-01-02T06:47:28.799Z,1.25
2017-01-02T06:48:42.583Z,1.25
2017-01-02T06:49:54.268Z,1.31
2017-01-02T06:51:05.958Z,1.3
2017-01-02T06:52:18.020Z,1.28
2017-01-02T06:53:29.952Z,1.28
2017-01-02T06:54:41.612Z,1.28
2017-01-02T06:55:54.629Z,1.39
2017-01-02T06:57:06.197Z,1.3
2017-01-02T06:58:18.218Z,1.25
2017-01-02T06:59:29.733Z,1.32
2017-01-02T07:00:41.434Z,1.32
2017-01-02T07:01:53.234Z,1.42
2017-01-02T07:03:04.826Z,1.43
2017-01-02T07:04:16.882Z,1.36
2017-01-02T07:05:28.452Z,1.3
2017-01-02T07:06:40.121Z,1.25
2017-01-02T07:07:52.181Z,1.3
2017-01-02T07:09:03.722Z,1.36
2017-01-02T07:10:15.592Z,1.43
2017-01-02T07:11:27.171Z,1.39
2017-01-02T07:12:38.997Z,1.4
2017-01-02T07:13:50.761Z,1.39
2017-01-02T07:15:02.363Z,1.34
2017-01-02T07:16:14.275Z,1.52
2017-01-02T07:17:25.763Z,1.4
2017-01-02T07:18:37.394Z,1.32
2017-01-02T07:19:49.138Z,1.39
2017-01-02T07:21:00.794Z,1.39
2017-01-02T07:22:12.590Z,1.4
2017-01-02T07:23:24.156Z,1.43
2017-01-02T07:24:36.269Z,1.38
2017-01-02T07:25:47.948Z,1.49
2017-01-02T07:26:59.537Z,1.56
2017-01-02T07:28:11.425Z,1.52
2017-01-02T07:29:22.995Z,1.5
2017-01-02T07:30:34.605Z,1.4
2017-01-02T07:31:46.841Z,1.48
2017-01-02T07:32:58.359Z,1.4
2017-01-02T07:34:10.316Z,1.52
2017-01-02T07:36:13.095Z,1.48
2017-01-02T07:37:24.750Z,1.49
2017-01-02T07:38:36.477Z,1.48
2017-01-02T07:39:49.273Z,1.49
2017-01-02T07:41:00.796Z,1.53
2017-01-02T07:42:12.408Z,1.52
2017-01-02T07:43:24.029Z,1.49
2017-01-02T07:44:35.684Z,1.45
2017-01-02T07:45:48.780Z,1.48
2017-01-02T07:47:00.829Z,1.42
2017-01-02T07:48:12.564Z,1.5
2017-01-02T07:49:24.166Z,1.57
2017-01-02T07:50:35.691Z,1.58
2017-01-02T07:51:47.554Z,1.52
2017-01-02T07:52:59.834Z,1.61
2017-01-02T07:54:11.442Z,1.48
2017-01-02T07:55:23.053Z,1.45
2017-01-02T07:56:34.601Z,1.5
2017-01-02T07:57:46.448Z,1.48
2017-01-02T07:58:58.054Z,1.49
2017-01-02T08:00:09.690Z,1.56
2017-01-02T08:01:21.495Z,1.53
2017-01-02T08:02:33.156Z,1.57
2017-01-02T08:03:47.843Z,1.6
2017-01-02T08:04:59.376Z,1.61
2017-01-02T08:06:10.908Z,1.61
2017-01-02T08:08:33.727Z,1.58
2017-01-02T08:09:45.622Z,1.6
2017-01-02T08:10:57.227Z,1.56
2017-01-02T08:12:08.873Z,1.58
2017-01-02T08:13:20.551Z,1.63
2017-01-02T08:14:32.109Z,1.66
2017-01-02T08:15:44.030Z,1.67
2017-01-02T08:16:55.628Z,1.75
2017-01-02T08:18:07.245Z,1.68
2017-01-02T08:19:18.960Z,1.67
2017-01-02T08:20:30.532Z,1.61
2017-01-02T08:21:42.481Z,1.66
2017-01-02T08:22:54.261Z,1.79
2017-01-02T08:24:05.802Z,1.76
2017-01-02T08:25:17.518Z,1.66
2017-01-02T08:26:29.293Z,1.67
2017-01-02T08:27:41.914Z,1.74
2017-01-02T08:28:53.664Z,1.76
2017-01-02T08:30:05.513Z,1.76
2017-01-02T08:31:17.889Z,1.67
2017-01-02T08:32:29.450Z,1.88
2017-01-02T08:33:41.276Z,1.92
2017-01-02T08:34:52.849Z,2.04
2017-01-02T08:36:04.442Z,2.04
2017-01-02T08:37:16.086Z,1.88
2017-01-02T08:38:27.556Z,1.89
2017-01-02T08:39:39.400Z,1.86
2017-01-02T08:40:50.962Z,1.88
2017-01-02T08:42:02.557Z,1.93
2017-01-02T08:43:14.275Z,1.86
2017-01-02T08:44:25.813Z,1.85
2017-01-02T08:45:37.623Z,2.04
2017-01-02T08:46:50.166Z,1.98
2017-01-02T08:48:01.937Z,2.08
2017-01-02T08:49:13.601Z,2.01
2017-01-02T08:50:25.301Z,2.12
2017-01-02T08:51:37.119Z,2.15
2017-01-02T08:52:48.718Z,1.97
2017-01-02T08:54:00.273Z,1.97
2017-01-02T08:55:13.032Z,2.18
2017-01-02T08:56:24.660Z,2.25
2017-01-02T08:57:36.523Z,2.25
2017-01-02T08:58:48.145Z,2.37
2017-01-02T08:59:59.643Z,2.41
2017-01-02T09:01:11.226Z,2.39
2017-01-02T09:02:22.849Z,2.26
2017-01-02T09:03:34.692Z,2.36
2017-01-02T09:04:46.249Z,2.26
2017-01-02T09:05:58.467Z,2.36
2017-01-02T09:07:10.126Z,2.34
2017-01-02T09:08:22.594Z,2.28
2017-01-02T09:09:34.648Z,2.26
2017-01-02T09:10:46.135Z,2.39
2017-01-02T09:11:57.693Z,2.39
2017-01-02T09:13:09.352Z,2.43
2017-01-02T09:14:20.859Z,2.36
2017-01-02T09:15:32.629Z,2.37
2017-01-02T09:16:44.153Z,2.37
2017-01-02T09:17:58.036Z,2.54
2017-01-02T09:19:10.845Z,2.52
2017-01-02T09:20:22.405Z,2.61
2017-01-02T09:21:34.240Z,2.55
2017-01-02T09:22:45.839Z,2.58
2017-01-02T09:23:57.421Z,2.7
2017-01-02T09:25:09.173Z,2.7
2017-01-02T09:26:20.826Z,2.57
2017-01-02T09:27:32.721Z,2.52
2017-01-02T09:28:44.269Z,2.58
2017-01-02T09:29:55.920Z,2.52
2017-01-02T09:31:07.667Z,2.55
2017-01-02T09:32:19.238Z,2.68
2017-01-02T09:33:31.198Z,2.65
2017-01-02T09:34:42.748Z,2.68
2017-01-02T09:35:54.277Z,2.58
2017-01-02T09:37:05.944Z,2.69
2017-01-02T09:38:17.537Z,2.76
2017-01-02T09:39:29.348Z,2.83
2017-01-02T09:40:40.941Z,2.93
2017-01-02T09:41:52.461Z,2.77
2017-01-02T09:43:04.096Z,2.95
2017-01-02T09:44:15.807Z,2.88
2017-01-02T09:45:27.879Z,2.91
2017-01-02T09:46:39.378Z,2.9
2017-01-02T09:47:50.859Z,2.93
2017-01-02T09:49:02.420Z,2.97
2017-01-02T09:50:13.953Z,3.11
2017-01-02T09:51:25.767Z,3.13
2017-01-02T09:52:37.295Z,3.18
2017-01-02T09:53:48.875Z,3.03
2017-01-02T09:55:01.612Z,3.08
2017-01-02T09:56:13.120Z,3.05
2017-01-02T09:57:24.985Z,2.97
2017-01-02T09:58:37.033Z,3.01
2017-01-02T09:59:48.595Z,2.98
2017-01-02T10:01:00.689Z,3.05
2017-01-02T10:02:12.224Z,2.93
2017-01-02T10:03:24.051Z,2.87
2017-01-02T10:04:35.776Z,2.98
2017-01-02T10:05:47.265Z,3.01
2017-01-02T10:06:58.964Z,2.95
2017-01-02T10:08:10.986Z,2.87
2017-01-02T10:09:22.815Z,2.95
2017-01-02T10:10:34.362Z,2.94
2017-01-02T10:11:45.869Z,2.9
2017-01-02T10:12:57.396Z,2.95
2017-01-02T10:14:08.976Z,2.93
2017-01-02T10:15:20.750Z,2.94
2017-01-02T10:16:32.233Z,3
2017-01-02T10:17:43.815Z,3
2017-01-02T10:18:55.438Z,3.11
2017-01-02T10:20:06.997Z,3.15
2017-01-02T10:21:18.952Z,3.12
2017-01-02T10:22:30.494Z,3.06
2017-01-02T10:23:42.034Z,3.08
2017-01-02T10:24:53.657Z,3
2017-01-02T10:26:05.350Z,3.05
2017-01-02T10:27:17.132Z,2.98
2017-01-02T10:28:28.670Z,2.97
2017-01-02T10:29:40.196Z,3.06
2017-01-02T10:30:51.834Z,3.13
2017-01-02T10:32:05.720Z,3.05
2017-01-02T10:33:18.204Z,3.21
2017-01-02T10:34:29.725Z,3.13
2017-01-02T10:35:41.285Z,3.06
2017-01-02T10:36:54.078Z,3
2017-01-02T10:38:08.458Z,3.05
2017-01-02T10:39:22.859Z,3.05
2017-01-02T10:40:37.023Z,2.97
2017-01-02T10:41:51.355Z,3.01
2017-01-02T10:43:05.666Z,3.01
2017-01-02T10:44:19.880Z,3.19
2017-01-02T10:45:34.408Z,3
2017-01-02T10:46:48.623Z,3.01
2017-01-02T10:48:02.908Z,3.16
2017-01-02T10:49:17.107Z,3.13
2017-01-02T10:50:31.222Z,3.16
2017-01-02T10:51:45.748Z,3.22
2017-01-02T10:52:59.970Z,3.19
2017-01-02T10:54:14.094Z,3.22
2017-01-02T10:55:28.292Z,3.24
2017-01-02T10:56:44.125Z,3.33
2017-01-02T10:57:58.391Z,3.4
2017-01-02T10:59:12.520Z,3.33
2017-01-02T11:00:26.655Z,3.27
2017-01-02T11:01:40.768Z,3.27
2017-01-02T11:02:55.299Z,3.45
2017-01-02T11:04:09.690Z,3.41
2017-01-02T11:05:23.799Z,3.36
2017-01-02T11:06:37.922Z,3.37
2017-01-02T11:07:52.035Z,3.45
2017-01-02T11:09:07.481Z,3.56
2017-01-02T11:10:22.011Z,3.58
2017-01-02T11:11:36.089Z,3.52
2017-01-02T11:12:50.179Z,3.48
2017-01-02T11:14:05.573Z,3.59
2017-01-02T11:15:19.704Z,3.45
2017-01-02T11:16:34.124Z,3.52
2017-01-02T11:17:48.204Z,3.56
2017-01-02T11:19:02.381Z,3.52
2017-01-02T11:20:16.441Z,3.37
2017-01-02T11:21:30.521Z,3.43
2017-01-02T11:22:44.985Z,3.41
2017-01-02T11:23:59.207Z,3.52
2017-01-02T11:25:13.403Z,3.56
2017-01-02T11:26:27.556Z,3.7
2017-01-02T11:27:41.918Z,3.81
2017-01-02T11:28:56.175Z,3.64
2017-01-02T11:30:10.357Z,3.68
2017-01-02T11:31:24.450Z,3.78
2017-01-02T11:32:38.546Z,3.85
2017-01-02T11:33:52.704Z,3.91
2017-01-02T11:35:07.275Z,4.06
2017-01-02T11:36:21.610Z,4.13
2017-01-02T11:37:35.869Z,4.07
2017-01-02T11:38:50.046Z,4
2017-01-02T11:40:04.365Z,4.13
2017-01-02T11:41:19.284Z,4.38
2017-01-02T11:42:33.506Z,4.25
2017-01-02T11:43:47.727Z,4.13
2017-01-02T11:45:01.969Z,4.24
2017-01-02T11:46:16.222Z,4.5
2017-01-02T11:47:30.741Z,4.49
2017-01-02T11:48:47.190Z,4.46
2017-01-02T11:50:01.307Z,4.52
2017-01-02T11:51:16.036Z,4.53
2017-01-02T11:52:30.442Z,4.39
2017-01-02T11:53:44.862Z,4.3
2017-01-02T11:54:59.091Z,4.04
2017-01-02T11:56:13.260Z,4
2017-01-02T11:57:27.367Z,3.82
2017-01-02T11:58:41.590Z,3.81
2017-01-02T11:59:55.929Z,3.78
2017-01-02T12:01:10.529Z,3.78
2017-01-02T12:02:24.651Z,3.68
2017-01-02T12:03:38.732Z,3.74
2017-01-02T12:04:52.780Z,3.59
2017-01-02T12:06:07.210Z,3.68
2017-01-02T12:07:21.405Z,3.7
2017-01-02T12:08:35.519Z,3.78
2017-01-02T12:09:49.611Z,3.73
2017-01-02T12:11:03.761Z,3.82
2017-01-02T12:12:18.182Z,3.81
2017-01-02T12:13:32.268Z,3.92
2017-01-02T12:16:15.945Z,4.06
2017-01-02T12:17:30.347Z,4.09
2017-01-02T12:18:44.538Z,4.18
2017-01-02T12:19:59.217Z,4.27
2017-01-02T12:21:13.480Z,4.3
2017-01-02T12:22:27.714Z,4.25
2017-01-02T12:23:42.182Z,4.36
2017-01-02T12:24:56.438Z,4.25
2017-01-02T12:26:10.575Z,4.45
2017-01-02T12:27:24.844Z,4.43
2017-01-02T12:28:39.058Z,4.43
2017-01-02T12:29:53.466Z,4.39
2017-01-02T12:31:07.922Z,4.27
2017-01-02T12:32:22.161Z,4.49
2017-01-02T12:33:36.480Z,4.39
2017-01-02T12:34:50.658Z,4.36
2017-01-02T12:36:05.236Z,4.32
2017-01-02T12:37:19.540Z,4.46
2017-01-02T12:38:33.652Z,4.45
2017-01-02T12:39:47.892Z,4.58
2017-01-02T12:41:02.109Z,4.49
2017-01-02T12:42:16.652Z,4.7
2017-01-02T12:43:30.924Z,4.84
2017-01-02T12:44:45.050Z,4.86
2017-01-02T12:45:59.123Z,4.87
2017-01-02T12:47:13.222Z,4.89
2017-01-02T12:48:27.727Z,4.9
2017-01-02T12:49:41.797Z,4.92
2017-01-02T12:50:56.478Z,4.71
2017-01-02T12:52:10.665Z,4.76
2017-01-02T12:53:24.842Z,4.78
2017-01-02T12:54:39.769Z,4.83
2017-01-02T12:55:54.313Z,4.94
2017-01-02T12:57:09.041Z,4.86
2017-01-02T12:58:23.945Z,4.89
2017-01-02T12:59:38.283Z,4.71
2017-01-02T13:00:52.654Z,4.78
2017-01-02T13:02:06.825Z,4.82
2017-01-02T13:03:20.981Z,4.87
2017-01-02T13:04:35.616Z,5.1
2017-01-02T13:05:49.725Z,5.13
2017-01-02T13:07:06.421Z,5.01
2017-01-02T13:08:20.819Z,4.98
2017-01-02T13:09:35.057Z,4.92
2017-01-02T13:10:49.299Z,4.9
2017-01-02T13:12:03.930Z,4.76
2017-01-02T13:13:18.461Z,4.71
2017-01-02T13:14:32.959Z,4.68
2017-01-02T13:15:47.116Z,4.64
2017-01-02T13:17:01.319Z,4.67
2017-01-02T13:18:15.443Z,4.58
2017-01-02T13:19:29.980Z,4.5
2017-01-02T13:20:44.257Z,4.56
2017-01-02T13:21:58.613Z,4.52
2017-01-02T13:23:12.793Z,4.58
2017-01-02T13:24:26.974Z,4.6
2017-01-02T13:25:41.550Z,4.48
2017-01-02T13:26:56.034Z,4.52
2017-01-02T13:28:10.294Z,4.53
2017-01-02T13:29:24.469Z,4.52
2017-01-02T13:30:38.637Z,4.58
2017-01-02T13:31:53.120Z,4.56
2017-01-02T13:33:07.292Z,4.52
2017-01-02T13:34:53.453Z,4.46
2017-01-02T13:36:08.112Z,4.5
2017-01-02T13:37:22.677Z,4.42
2017-01-02T13:38:37.016Z,4.42
2017-01-02T13:39:51.323Z,4.39
2017-01-02T13:41:05.504Z,4.49
2017-01-02T13:42:19.608Z,4.43
2017-01-02T13:43:34.522Z,4.5
2017-01-02T13:44:48.912Z,4.39
2017-01-02T13:46:03.385Z,4.56
2017-01-02T13:47:17.652Z,4.43
2017-01-02T13:48:31.843Z,4.48
2017-01-02T13:49:46.452Z,4.5
2017-01-02T13:51:01.132Z,4.48
2017-01-02T13:52:15.256Z,4.28
2017-01-02T13:53:29.360Z,4.34
2017-01-02T13:54:43.468Z,4.24
2017-01-02T13:55:59.092Z,4.27
2017-01-02T13:57:13.256Z,4.43
2017-01-02T13:58:27.494Z,4.28
2017-01-02T13:59:41.732Z,4.38
2017-01-02T14:00:56.009Z,4.38
2017-01-02T14:02:10.518Z,4.42
2017-01-02T14:03:24.743Z,4.36
2017-01-02T14:04:38.895Z,4.36
2017-01-02T14:05:53.204Z,4.34
2017-01-02T14:07:07.352Z,4.38
2017-01-02T14:08:21.787Z,4.4
2017-01-02T14:09:36.205Z,4.42
2017-01-02T14:10:50.510Z,4.32
2017-01-02T14:12:04.753Z,4.34
2017-01-02T14:13:18.916Z,4.27
2017-01-02T14:14:33.652Z,4.22
2017-01-02T14:15:47.830Z,4.3
2017-01-02T14:17:02.037Z,4.36
2017-01-02T14:18:16.216Z,4.28
2017-01-02T14:19:30.404Z,4.39
2017-01-02T14:20:44.829Z,4.39
2017-01-02T14:21:59.046Z,4.3
2017-01-02T14:23:13.426Z,4.36
2017-01-02T14:24:29.824Z,4.39
2017-01-02T14:25:43.889Z,4.46
2017-01-02T14:26:58.295Z,4.53
2017-01-02T14:28:12.453Z,4.46
2017-01-02T14:29:26.533Z,4.49
2017-01-02T14:30:40.619Z,4.53
2017-01-02T14:31:54.847Z,4.42
2017-01-02T14:33:09.318Z,4.48
2017-01-02T14:34:23.546Z,4.43
2017-01-02T14:35:37.736Z,4.52
2017-01-02T14:36:51.960Z,4.58
2017-01-02T14:38:06.213Z,4.52
2017-01-02T14:39:20.617Z,4.6
2017-01-02T14:40:34.814Z,4.64
2017-01-02T14:41:48.894Z,4.71
2017-01-02T14:43:03.211Z,4.58
2017-01-02T14:44:17.351Z,4.56
2017-01-02T14:45:31.713Z,4.52
2017-01-02T14:46:45.805Z,4.57
2017-01-02T14:47:59.922Z,4.5
2017-01-02T14:49:14.097Z,4.49
2017-01-02T14:50:28.159Z,4.52
2017-01-02T14:51:42.828Z,4.56
2017-01-02T14:52:57.460Z,4.48
2017-01-02T14:54:11.594Z,4.53
2017-01-02T14:55:25.943Z,4.5
2017-01-02T14:56:40.627Z,4.57
2017-01-02T14:57:55.112Z,4.5
2017-01-02T14:59:09.214Z,4.28
2017-01-02T15:00:23.321Z,4.3
2017-01-02T15:01:37.622Z,4.24
2017-01-02T15:02:52.553Z,4.2
2017-01-02T15:04:08.126Z,4.27
2017-01-02T15:05:22.369Z,4.28
2017-01-02T15:06:38.322Z,4.24
2017-01-02T15:07:54.387Z,4.36
2017-01-02T15:09:09.227Z,4.27
2017-01-02T15:10:23.606Z,4.48
2017-01-02T15:11:37.716Z,4.24
2017-01-02T15:12:51.794Z,4.28
2017-01-02T15:14:07.159Z,4.28
2017-01-02T15:15:21.511Z,4.1
2017-01-02T15:16:36.010Z,4.28
2017-01-02T15:17:50.247Z,4.24
2017-01-02T15:19:04.437Z,4.3
2017-01-02T15:20:20.546Z,4.32
2017-01-02T15:21:34.676Z,4.34
2017-01-02T15:22:49.626Z,4.4
2017-01-02T15:24:04.008Z,4.28
2017-01-02T15:25:18.090Z,4.28
2017-01-02T15:26:32.230Z,4.4
2017-01-02T15:27:46.875Z,4.4
2017-01-02T15:29:01.326Z,4.24
2017-01-02T15:30:15.835Z,4.42
2017-01-02T15:31:29.954Z,4.36
2017-01-02T15:32:44.303Z,4.36
2017-01-02T15:33:58.711Z,4.4
2017-01-02T15:35:13.174Z,4.4
2017-01-02T15:36:27.338Z,4.52
2017-01-02T15:37:41.443Z,4.36
2017-01-02T15:39:57.070Z,4.42
2017-01-02T15:41:11.296Z,4.42
2017-01-02T15:42:27.681Z,4.4
2017-01-02T15:43:42.261Z,4.46
2017-01-02T15:44:56.502Z,4.5
2017-01-02T15:46:11.070Z,4.49
2017-01-02T15:47:25.138Z,4.49
2017-01-02T15:48:39.691Z,4.43
2017-01-02T15:49:53.804Z,4.31
2017-01-02T15:51:09.134Z,4.3
2017-01-02T15:52:23.803Z,4.38
2017-01-02T15:53:37.893Z,4.31
2017-01-02T15:54:52.061Z,4.3
2017-01-02T15:56:06.339Z,4.27
2017-01-02T15:57:20.864Z,4.4
2017-01-02T15:58:35.473Z,4.39
2017-01-02T15:59:49.548Z,4.49
2017-01-02T16:01:03.723Z,4.48
2017-01-02T16:02:18.306Z,4.5
2017-01-02T16:03:32.376Z,4.57
2017-01-02T16:04:46.908Z,4.52
2017-01-02T16:06:01.025Z,4.57
2017-01-02T16:07:15.183Z,4.46
2017-01-02T16:08:29.300Z,4.52
2017-01-02T16:09:43.449Z,4.53
2017-01-02T16:10:58.269Z,4.56
2017-01-02T16:12:12.634Z,4.53
2017-01-02T16:13:26.813Z,4.57
2017-01-02T16:15:38.530Z,4.56
2017-01-02T16:16:53.219Z,4.53
2017-01-02T16:18:07.404Z,4.45
2017-01-02T16:19:21.660Z,4.5
2017-01-02T16:20:36.537Z,4.45
2017-01-02T16:21:50.887Z,4.56
2017-01-02T16:23:05.320Z,4.48
2017-01-02T16:24:19.645Z,4.53
2017-01-02T16:25:34.324Z,4.57
2017-01-02T16:26:49.685Z,4.56
2017-01-02T16:28:03.808Z,4.52
2017-01-02T16:29:18.346Z,4.48
2017-01-02T16:30:32.475Z,4.5
2017-01-02T16:31:46.814Z,4.43
2017-01-02T16:33:00.984Z,4.45
2017-01-02T16:34:15.110Z,4.31
2017-01-02T16:35:42.220Z,4.31
2017-01-02T16:36:56.561Z,4.28